createdAt,value
2023-08-17T00:01:07.083Z,2.88
2023-08-17T00:03:34.039Z,2.88
2023-08-17T00:06:01.470Z,2.60
2023-08-17T00:08:28.473Z,2.72
2023-08-17T00:10:55.239Z,2.95
2023-08-17T00:13:22.104Z,3.08
2023-08-17T00:15:48.994Z,2.72
2023-08-17T00:18:15.929Z,2.65
2023-08-17T00:20:42.767Z,3.17
2023-08-17T00:23:09.605Z,3.42
2023-08-17T00:25:36.644Z,3.10
2023-08-17T00:28:03.643Z,3.20
2023-08-17T00:30:30.499Z,3.60
2023-08-17T00:32:57.478Z,3.25
2023-08-17T00:35:24.402Z,3.90
2023-08-17T00:37:51.234Z,2.78
2023-08-17T00:40:18.112Z,3.22
2023-08-17T00:42:44.936Z,3.22
2023-08-17T00:45:11.837Z,3.40
2023-08-17T00:47:39.201Z,3.75
2023-08-17T00:50:06.921Z,3.78
2023-08-17T00:52:34.576Z,3.85
2023-08-17T00:55:02.197Z,4.18
2023-08-17T00:57:29.609Z,4.05
2023-08-17T01:00:04.761Z,3.38
2023-08-17T01:02:34.025Z,3.22
2023-08-17T01:05:01.586Z,3.33
2023-08-17T01:07:28.808Z,2.40
2023-08-17T01:09:55.986Z,2.85
2023-08-17T01:13:08.965Z,2.72
2023-08-17T01:15:48.602Z,2.58
2023-08-17T01:18:23.147Z,2.72
2023-08-17T01:20:50.820Z,2.95
2023-08-17T01:23:17.769Z,2.60
2023-08-17T01:25:44.677Z,2.80
2023-08-17T01:28:11.526Z,2.97
2023-08-17T01:31:09.631Z,3.40
2023-08-17T01:33:38.658Z,2.80
2023-08-17T01:36:12.714Z,2.83
2023-08-17T01:38:41.705Z,2.90
2023-08-17T01:41:14.401Z,2.88
2023-08-17T01:43:46.915Z,2.95
2023-08-17T01:46:19.157Z,3.13
2023-08-17T01:48:46.915Z,2.97
2023-08-17T01:51:22.481Z,3.05
2023-08-17T01:53:49.785Z,2.50
2023-08-17T01:56:16.779Z,3.17
2023-08-17T01:58:43.799Z,3.22
2023-08-17T02:01:10.905Z,2.90
2023-08-17T02:03:37.879Z,2.95
2023-08-17T02:06:04.748Z,3.38
2023-08-17T02:08:31.816Z,3.03
2023-08-17T02:10:58.631Z,3.33
2023-08-17T02:13:25.442Z,3.20
2023-08-17T02:15:52.267Z,3.28
2023-08-17T02:18:19.079Z,3.47
2023-08-17T02:20:46.677Z,2.72
2023-08-17T02:23:13.624Z,3.17
2023-08-17T02:25:40.969Z,3.47
2023-08-17T02:28:07.885Z,3.58
2023-08-17T02:30:34.961Z,3.00
2023-08-17T02:33:01.932Z,3.10
2023-08-17T02:35:28.989Z,3.65
2023-08-17T02:37:56.081Z,3.50
2023-08-17T02:40:23.428Z,3.72
2023-08-17T02:42:50.401Z,3.63
2023-08-17T02:45:17.363Z,3.63
2023-08-17T02:47:44.367Z,3.55
2023-08-17T02:50:11.423Z,3.15
2023-08-17T02:52:38.478Z,3.65
2023-08-17T02:55:05.921Z,4.18
2023-08-17T02:57:32.870Z,3.28
2023-08-17T02:59:59.841Z,3.58
2023-08-17T03:02:26.698Z,3.53
2023-08-17T03:04:53.556Z,3.10
2023-08-17T03:07:20.361Z,2.92
2023-08-17T03:09:47.250Z,3.03
2023-08-17T03:12:14.109Z,3.63
2023-08-17T03:14:41.013Z,3.33
2023-08-17T03:17:07.900Z,3.67
2023-08-17T03:19:34.678Z,3.63
2023-08-17T03:22:01.572Z,3.72
2023-08-17T03:24:28.439Z,3.50
2023-08-17T03:26:55.255Z,4.03
2023-08-17T03:29:22.069Z,3.65
2023-08-17T03:31:50.771Z,3.72
2023-08-17T03:34:17.659Z,3.80
2023-08-17T03:36:44.556Z,3.88
2023-08-17T03:39:11.680Z,4.20
2023-08-17T03:41:38.579Z,4.22
2023-08-17T03:44:07.160Z,3.70
2023-08-17T03:46:34.898Z,3.85
2023-08-17T03:49:01.832Z,4.50
2023-08-17T03:51:28.714Z,4.30
2023-08-17T03:53:55.611Z,4.13
2023-08-17T03:56:22.444Z,4.13
2023-08-17T03:58:49.311Z,3.97
2023-08-17T04:01:16.268Z,3.75
2023-08-17T04:03:43.390Z,3.97
2023-08-17T04:06:11.606Z,3.75
2023-08-17T04:08:39.126Z,4.65
2023-08-17T04:11:09.320Z,4.13
2023-08-17T04:13:36.502Z,3.97
2023-08-17T04:16:03.387Z,3.78
2023-08-17T04:18:30.391Z,4.15
2023-08-17T04:20:57.305Z,3.95
2023-08-17T04:23:24.148Z,4.18
2023-08-17T04:25:50.997Z,3.83
2023-08-17T04:28:17.890Z,3.20
2023-08-17T04:30:44.927Z,3.75
2023-08-17T04:33:14.070Z,3.97
2023-08-17T04:35:41.156Z,3.53
2023-08-17T04:38:08.071Z,3.60
2023-08-17T04:40:35.039Z,4.32
2023-08-17T04:43:02.055Z,4.25
2023-08-17T04:45:29.191Z,3.85
2023-08-17T04:47:56.231Z,3.67
2023-08-17T04:50:23.167Z,3.88
2023-08-17T04:52:50.081Z,4.00
2023-08-17T04:55:16.978Z,3.53
2023-08-17T04:57:44.165Z,3.53
2023-08-17T05:00:12.118Z,3.88
2023-08-17T05:02:39.131Z,3.30
2023-08-17T05:05:06.987Z,3.00
2023-08-17T05:07:34.595Z,3.45
2023-08-17T05:10:02.224Z,4.07
2023-08-17T05:12:29.335Z,3.35
2023-08-17T05:14:56.315Z,3.35
2023-08-17T05:17:23.238Z,3.00
2023-08-17T05:19:50.575Z,3.10
2023-08-17T05:22:17.436Z,3.42
2023-08-17T05:24:44.439Z,3.42
2023-08-17T05:27:11.483Z,3.38
2023-08-17T05:29:38.478Z,3.33
2023-08-17T05:32:05.804Z,3.65
2023-08-17T05:34:32.757Z,3.10
2023-08-17T05:36:59.587Z,2.75
2023-08-17T05:39:26.949Z,2.72
2023-08-17T05:41:53.875Z,2.70
2023-08-17T05:44:20.736Z,2.33
2023-08-17T05:46:48.618Z,2.90
2023-08-17T05:49:17.416Z,2.80
2023-08-17T05:51:44.351Z,2.72
2023-08-17T05:54:11.217Z,2.63
2023-08-17T05:56:38.138Z,2.60
2023-08-17T05:59:05.733Z,2.63
2023-08-17T06:01:32.763Z,2.85
2023-08-17T06:03:59.626Z,2.10
2023-08-17T06:06:27.443Z,2.35
2023-08-17T06:08:54.343Z,2.60
2023-08-17T06:11:21.336Z,2.42
2023-08-17T06:13:48.240Z,2.00
2023-08-17T06:16:15.098Z,1.90
2023-08-17T06:18:42.000Z,2.17
2023-08-17T06:21:09.496Z,2.72
2023-08-17T06:23:36.348Z,1.90
2023-08-17T06:26:03.521Z,2.25
2023-08-17T06:28:30.381Z,2.15
2023-08-17T06:30:58.395Z,2.60
2023-08-17T06:33:25.618Z,2.67
2023-08-17T06:35:52.812Z,2.05
2023-08-17T06:38:19.646Z,2.25
2023-08-17T06:40:47.341Z,2.53
2023-08-17T06:43:15.822Z,2.50
2023-08-17T06:45:44.120Z,2.20
2023-08-17T06:48:11.332Z,2.17
2023-08-17T06:50:38.344Z,2.80
2023-08-17T06:53:06.278Z,2.63
2023-08-17T06:55:33.140Z,2.17
2023-08-17T06:58:00.253Z,2.55
2023-08-17T07:00:27.308Z,2.83
2023-08-17T07:02:56.349Z,2.60
2023-08-17T07:05:25.813Z,2.63
2023-08-17T07:07:54.079Z,3.15
2023-08-17T07:10:21.128Z,2.90
2023-08-17T07:12:48.171Z,2.63
2023-08-17T07:15:16.535Z,4.10
2023-08-17T07:17:45.283Z,3.30
2023-08-17T07:20:17.029Z,3.25
2023-08-17T07:22:45.141Z,3.40
2023-08-17T07:25:12.162Z,4.82
2023-08-17T07:27:41.351Z,4.43
2023-08-17T07:30:09.179Z,4.53
2023-08-17T07:32:37.596Z,5.03
2023-08-17T07:35:07.085Z,4.63
2023-08-17T07:37:39.428Z,4.70
2023-08-17T07:40:11.082Z,5.43
2023-08-17T07:42:41.627Z,5.70
2023-08-17T07:45:09.192Z,5.28
2023-08-17T07:47:40.868Z,5.18
2023-08-17T07:50:10.418Z,4.85
2023-08-17T07:52:43.029Z,4.80
2023-08-17T07:55:11.348Z,5.13
2023-08-17T07:57:41.425Z,5.32
2023-08-17T08:00:13.254Z,6.20
2023-08-17T08:02:43.408Z,4.25
2023-08-17T08:05:10.340Z,4.93
2023-08-17T08:07:37.209Z,5.22
2023-08-17T08:10:04.335Z,10.68
2023-08-17T08:12:33.835Z,5.18
2023-08-17T08:15:03.986Z,4.97
2023-08-17T08:17:31.282Z,5.03
2023-08-17T08:19:59.327Z,5.00
2023-08-17T08:22:26.573Z,4.95
2023-08-17T08:24:53.445Z,5.20
2023-08-17T08:27:20.469Z,4.88
2023-08-17T08:29:47.622Z,4.97
2023-08-17T08:32:14.601Z,3.95
2023-08-17T08:34:41.463Z,4.10
2023-08-17T08:37:08.342Z,4.25
2023-08-17T08:39:52.845Z,5.13
2023-08-17T08:42:20.861Z,4.18
2023-08-17T08:44:49.092Z,4.65
2023-08-17T08:47:18.336Z,4.35
2023-08-17T08:50:06.227Z,3.90
2023-08-17T08:52:41.741Z,3.90
2023-08-17T08:55:20.350Z,4.45
2023-08-17T08:57:52.355Z,3.75
2023-08-17T09:00:19.916Z,3.65
2023-08-17T09:02:47.121Z,4.50
2023-08-17T09:05:15.144Z,4.65
2023-08-17T09:07:44.239Z,4.70
2023-08-17T09:10:12.021Z,4.43
2023-08-17T09:12:41.590Z,4.95
2023-08-17T09:15:09.514Z,4.90
2023-08-17T09:17:44.108Z,4.90
2023-08-17T09:20:11.725Z,4.13
2023-08-17T09:22:44.042Z,4.43
2023-08-17T09:25:23.779Z,3.97
2023-08-17T09:27:50.616Z,4.65
2023-08-17T09:30:19.515Z,3.85
2023-08-17T09:32:49.248Z,4.60
2023-08-17T09:35:16.233Z,4.07
2023-08-17T09:37:43.195Z,3.90
2023-08-17T09:40:11.380Z,4.57
2023-08-17T09:42:40.055Z,4.32
2023-08-17T09:45:07.902Z,4.10
2023-08-17T09:47:35.008Z,4.20
2023-08-17T09:50:07.335Z,3.78
2023-08-17T09:52:34.334Z,4.30
2023-08-17T09:55:08.180Z,3.70
2023-08-17T09:57:37.748Z,4.03
2023-08-17T10:00:10.286Z,3.70
2023-08-17T10:02:37.110Z,3.63
2023-08-17T10:05:06.715Z,4.80
2023-08-17T10:07:38.730Z,3.97
2023-08-17T10:10:07.117Z,4.20
2023-08-17T10:12:52.157Z,4.25
2023-08-17T10:15:20.748Z,3.63
2023-08-17T10:18:03.259Z,3.75
2023-08-17T10:20:32.084Z,4.35
2023-08-17T10:23:16.403Z,3.25
2023-08-17T10:25:44.348Z,3.72
2023-08-17T10:28:12.041Z,3.90
2023-08-17T10:30:39.503Z,3.75
2023-08-17T10:33:11.064Z,3.92
2023-08-17T10:35:39.439Z,4.13
2023-08-17T10:38:10.593Z,3.45
2023-08-17T10:40:42.227Z,3.53
2023-08-17T10:43:09.269Z,3.13
2023-08-17T10:45:39.575Z,3.55
2023-08-17T10:48:09.929Z,2.67
2023-08-17T10:50:42.723Z,4.25
2023-08-17T10:53:14.425Z,2.90
2023-08-17T10:55:46.178Z,2.92
2023-08-17T10:58:16.228Z,3.10
2023-08-17T11:00:45.536Z,3.25
2023-08-17T11:03:29.850Z,2.95
2023-08-17T11:05:58.187Z,2.92
2023-08-17T11:08:29.005Z,2.58
2023-08-17T11:11:11.995Z,2.55
2023-08-17T11:13:44.495Z,2.72
2023-08-17T11:16:15.970Z,2.08
2023-08-17T11:18:47.877Z,2.42
2023-08-17T11:21:19.777Z,2.72
2023-08-17T11:23:47.512Z,2.22
2023-08-17T11:26:18.241Z,3.08
2023-08-17T11:28:46.048Z,2.38
2023-08-17T11:31:14.943Z,2.20
2023-08-17T11:33:41.864Z,2.90
2023-08-17T11:36:10.972Z,2.30
2023-08-17T11:38:42.679Z,2.30
2023-08-17T11:41:10.431Z,2.00
2023-08-17T11:43:38.063Z,2.13
2023-08-17T11:46:06.321Z,2.10
2023-08-17T11:51:03.678Z,1.80
2023-08-17T11:53:37.376Z,1.95
2023-08-17T11:56:08.156Z,1.80
2023-08-17T11:58:44.602Z,2.08
2023-08-17T12:03:42.001Z,1.90
2023-08-17T12:06:10.215Z,2.33
2023-08-17T12:08:37.331Z,1.73
2023-08-17T12:11:04.772Z,1.77
2023-08-17T12:13:35.801Z,1.75
2023-08-17T12:16:03.374Z,1.98
2023-08-17T12:18:34.441Z,2.28
2023-08-17T12:21:01.689Z,1.58
2023-08-17T12:23:28.638Z,1.35
2023-08-17T12:25:56.628Z,1.40
2023-08-17T12:28:25.613Z,1.65
2023-08-17T12:31:04.056Z,1.35
2023-08-17T12:33:31.092Z,1.38
2023-08-17T12:35:58.248Z,1.60
2023-08-17T12:38:26.385Z,1.20
2023-08-17T12:40:53.618Z,1.40
2023-08-17T12:43:23.149Z,1.10
2023-08-17T12:45:50.671Z,1.25
2023-08-17T12:48:17.574Z,1.30
2023-08-17T12:50:47.218Z,1.25
2023-08-17T12:53:14.124Z,1.55
2023-08-17T12:55:41.053Z,1.10
2023-08-17T12:58:11.254Z,1.20
2023-08-17T13:00:38.197Z,2.05
2023-08-17T13:03:05.472Z,1.23
2023-08-17T13:05:33.351Z,1.52
2023-08-17T13:08:00.484Z,1.20
2023-08-17T13:10:30.111Z,1.33
2023-08-17T13:13:02.333Z,1.52
2023-08-17T13:15:29.583Z,1.27
2023-08-17T13:17:56.760Z,1.17
2023-08-17T13:20:23.626Z,1.15
2023-08-17T13:22:50.752Z,1.10
2023-08-17T13:25:18.201Z,1.20
2023-08-17T13:27:45.277Z,1.50
2023-08-17T13:30:12.336Z,1.95
2023-08-17T13:32:39.517Z,1.75
2023-08-17T13:35:06.852Z,1.30
2023-08-17T13:37:35.811Z,1.33
2023-08-17T13:40:05.525Z,1.55
2023-08-17T13:42:35.157Z,1.40
2023-08-17T13:45:02.068Z,1.63
2023-08-17T13:47:28.927Z,1.70
2023-08-17T13:49:56.990Z,1.77
2023-08-17T13:52:24.616Z,1.35
2023-08-17T13:54:53.506Z,1.45
2023-08-17T13:57:20.346Z,1.60
2023-08-17T13:59:47.208Z,1.17
2023-08-17T14:02:14.108Z,1.20
2023-08-17T14:04:41.107Z,1.55
2023-08-17T14:07:07.974Z,1.10
2023-08-17T14:09:35.020Z,1.40
2023-08-17T14:12:02.773Z,1.25
2023-08-17T14:14:29.782Z,1.50
2023-08-17T14:16:58.048Z,1.40
2023-08-17T14:19:25.825Z,1.05
2023-08-17T14:21:55.941Z,1.75
2023-08-17T14:24:22.947Z,1.10
2023-08-17T14:26:50.160Z,1.25
2023-08-17T14:29:17.056Z,1.15
2023-08-17T14:31:43.880Z,1.13
2023-08-17T14:34:10.738Z,1.17
2023-08-17T14:36:37.699Z,1.17
2023-08-17T14:39:04.801Z,1.50
2023-08-17T14:41:33.668Z,1.35
2023-08-17T14:44:03.133Z,1.10
2023-08-17T14:46:30.897Z,1.40
2023-08-17T14:48:58.326Z,1.58
2023-08-17T14:51:30.920Z,1.15
2023-08-17T14:53:59.642Z,1.52
2023-08-17T14:56:26.543Z,1.00
2023-08-17T14:58:53.601Z,1.30
2023-08-17T15:01:22.956Z,1.13
2023-08-17T15:03:49.827Z,1.00
2023-08-17T15:06:28.017Z,0.73
2023-08-17T15:09:00.323Z,1.10
2023-08-17T15:11:27.336Z,1.00
2023-08-17T15:13:54.138Z,0.90
2023-08-17T15:16:28.473Z,1.30
2023-08-17T15:18:55.806Z,1.00
2023-08-17T15:21:24.337Z,1.75
2023-08-17T15:23:51.413Z,1.23
2023-08-17T15:26:18.305Z,0.88
2023-08-17T15:28:45.669Z,1.27
2023-08-17T15:31:17.362Z,1.15
2023-08-17T15:33:44.307Z,1.13
2023-08-17T15:36:11.158Z,1.00
2023-08-17T15:38:38.106Z,1.65
2023-08-17T15:41:05.017Z,1.77
2023-08-17T15:43:31.949Z,1.20
2023-08-17T15:45:58.840Z,1.50
2023-08-17T15:48:25.800Z,1.35
2023-08-17T15:50:53.024Z,1.20
2023-08-17T15:53:19.894Z,1.25
2023-08-17T15:55:46.784Z,0.90
2023-08-17T15:58:14.101Z,1.27
2023-08-17T16:00:41.187Z,1.27
2023-08-17T16:03:11.495Z,1.30
2023-08-17T16:05:39.796Z,1.40
2023-08-17T16:08:06.890Z,1.20
2023-08-17T16:10:35.736Z,1.00
2023-08-17T16:13:03.256Z,0.88
2023-08-17T16:15:30.042Z,1.35
2023-08-17T16:18:00.753Z,0.98
2023-08-17T16:20:30.637Z,1.20
2023-08-17T16:22:57.581Z,1.10
2023-08-17T16:25:29.723Z,1.70
2023-08-17T16:27:57.252Z,1.23
2023-08-17T16:30:24.563Z,1.00
2023-08-17T16:32:51.697Z,0.93
2023-08-17T16:35:18.822Z,1.98
2023-08-17T16:37:45.654Z,0.75
2023-08-17T16:40:20.872Z,0.93
2023-08-17T16:43:01.131Z,1.23
2023-08-17T16:45:28.558Z,1.08
2023-08-17T16:47:55.845Z,0.90
2023-08-17T16:50:23.108Z,1.27
2023-08-17T16:52:50.847Z,0.90
2023-08-17T16:55:18.253Z,1.30
2023-08-17T16:57:45.595Z,0.88
2023-08-17T17:00:13.151Z,0.90
2023-08-17T17:02:40.062Z,1.27
2023-08-17T17:05:07.566Z,0.90
2023-08-17T17:07:34.384Z,0.80
2023-08-17T17:10:01.188Z,0.90
2023-08-17T17:12:28.472Z,0.90
2023-08-17T17:14:55.489Z,0.98
2023-08-17T17:17:22.516Z,1.25
2023-08-17T17:19:50.814Z,0.90
2023-08-17T17:22:18.354Z,0.88
2023-08-17T17:24:45.217Z,1.20
2023-08-17T17:27:12.014Z,0.90
2023-08-17T17:29:38.918Z,0.90
2023-08-17T17:32:05.924Z,0.95
2023-08-17T17:34:32.969Z,0.90
2023-08-17T17:36:59.912Z,1.05
2023-08-17T17:39:26.794Z,2.42
2023-08-17T17:41:55.085Z,0.82
2023-08-17T17:44:21.902Z,0.95
2023-08-17T17:46:48.769Z,0.82
2023-08-17T17:49:17.741Z,1.00
2023-08-17T17:51:46.186Z,0.73
2023-08-17T17:54:13.206Z,1.02
2023-08-17T17:56:44.051Z,0.80
2023-08-17T17:59:11.804Z,0.93
2023-08-17T18:01:39.545Z,0.80
2023-08-17T18:04:06.951Z,1.05
2023-08-17T18:06:35.452Z,0.73
2023-08-17T18:09:08.612Z,1.00
2023-08-17T18:11:35.488Z,1.20
2023-08-17T18:14:04.955Z,1.05
2023-08-17T18:16:32.153Z,0.80
2023-08-17T18:18:59.676Z,1.02
2023-08-17T18:21:31.301Z,0.90
2023-08-17T18:24:01.640Z,0.90
2023-08-17T18:26:28.518Z,0.85
2023-08-17T18:28:56.595Z,1.10
2023-08-17T18:31:23.639Z,0.98
2023-08-17T18:33:50.604Z,1.10
2023-08-17T18:36:17.607Z,1.20
2023-08-17T18:38:44.528Z,1.40
2023-08-17T18:41:11.580Z,1.00
2023-08-17T18:43:38.865Z,0.88
2023-08-17T18:46:09.013Z,1.02
2023-08-17T18:48:36.121Z,1.20
2023-08-17T18:51:03.054Z,1.25
2023-08-17T18:53:29.995Z,1.05
2023-08-17T18:59:24.695Z,0.90
2023-08-17T19:01:51.518Z,0.75
2023-08-17T19:04:18.458Z,1.20
2023-08-17T19:06:45.240Z,0.90
2023-08-17T19:09:12.128Z,0.95
2023-08-17T19:11:38.949Z,0.98
2023-08-17T19:14:07.786Z,1.10
2023-08-17T19:16:34.667Z,1.08
2023-08-17T19:19:02.558Z,0.90
2023-08-17T19:21:50.048Z,1.17
2023-08-17T19:24:17.152Z,1.00
2023-08-17T19:26:43.994Z,1.50
2023-08-17T19:29:10.821Z,0.95
2023-08-17T19:31:37.957Z,1.20
2023-08-17T19:34:07.590Z,0.73
2023-08-17T19:36:35.102Z,1.25
2023-08-17T19:39:02.104Z,1.00
2023-08-17T19:41:29.286Z,1.10
2023-08-17T19:43:56.058Z,1.10
2023-08-17T19:46:22.941Z,1.02
2023-08-17T19:48:50.777Z,1.10
2023-08-17T19:51:17.611Z,0.95
2023-08-17T19:53:45.618Z,0.70
2023-08-17T19:56:12.434Z,1.20
2023-08-17T19:58:39.304Z,1.08
2023-08-17T20:01:08.542Z,1.00
2023-08-17T20:03:35.998Z,1.20
2023-08-17T20:06:03.308Z,1.10
2023-08-17T20:08:30.395Z,1.35
2023-08-17T20:10:57.294Z,1.10
2023-08-17T20:13:24.121Z,1.40
2023-08-17T20:15:55.626Z,1.00
2023-08-17T20:18:23.058Z,0.77
2023-08-17T20:20:57.116Z,1.05
2023-08-17T20:23:24.450Z,1.00
2023-08-17T20:25:53.795Z,1.25
2023-08-17T20:28:21.999Z,0.82
2023-08-17T20:30:55.645Z,1.15
2023-08-17T20:33:22.831Z,1.10
2023-08-17T20:35:54.875Z,1.40
2023-08-17T20:38:22.698Z,1.00
2023-08-17T20:40:50.255Z,1.00
2023-08-17T20:43:17.773Z,1.30
2023-08-17T20:45:44.812Z,1.23
2023-08-17T20:48:11.941Z,1.10
2023-08-17T20:50:43.740Z,1.10
2023-08-17T20:53:11.319Z,0.90
2023-08-17T20:55:40.338Z,1.20
2023-08-17T20:58:07.796Z,1.23
2023-08-17T21:00:36.938Z,2.28
2023-08-17T21:03:06.778Z,0.82
2023-08-17T21:05:34.186Z,1.05
2023-08-17T21:08:02.604Z,1.70
2023-08-17T21:10:29.891Z,1.10
2023-08-17T21:12:56.709Z,1.60
2023-08-17T21:15:23.777Z,1.20
2023-08-17T21:17:50.602Z,1.00
2023-08-17T21:20:17.707Z,1.50
2023-08-17T21:22:51.802Z,1.42
2023-08-17T21:25:19.437Z,1.38
2023-08-17T21:27:46.448Z,1.30
2023-08-17T21:30:13.488Z,1.10
2023-08-17T21:32:40.613Z,1.50
2023-08-17T21:35:08.357Z,1.30
2023-08-17T21:37:39.720Z,1.20
2023-08-17T21:40:07.010Z,1.67
2023-08-17T21:42:33.800Z,1.80
2023-08-17T21:45:00.763Z,1.38
2023-08-17T21:47:27.971Z,1.70
2023-08-17T21:49:55.109Z,1.95
2023-08-17T21:52:22.050Z,1.40
2023-08-17T21:54:52.090Z,2.17
2023-08-17T21:57:19.180Z,1.50
2023-08-17T21:59:46.094Z,1.40
2023-08-17T22:02:12.981Z,1.55
2023-08-17T22:04:39.858Z,2.47
2023-08-17T22:07:06.920Z,1.92
2023-08-17T22:09:34.617Z,1.73
2023-08-17T22:12:02.567Z,1.98
2023-08-17T22:14:32.586Z,1.60
2023-08-17T22:16:59.477Z,1.90
2023-08-17T22:19:26.965Z,1.85
2023-08-17T22:21:54.474Z,1.88
2023-08-17T22:24:21.504Z,1.98
2023-08-17T22:26:48.391Z,2.15
2023-08-17T22:29:15.227Z,1.77
2023-08-17T22:31:43.682Z,1.80
2023-08-17T22:34:13.892Z,2.10
2023-08-17T22:36:40.765Z,2.20
2023-08-17T22:39:07.780Z,2.75
2023-08-17T22:41:34.672Z,2.10
2023-08-17T22:44:02.225Z,1.75
2023-08-17T22:46:29.261Z,2.10
2023-08-17T22:48:56.257Z,2.55
2023-08-17T22:51:24.277Z,1.98
2023-08-17T22:53:51.746Z,2.38
2023-08-17T22:56:18.603Z,2.50
2023-08-17T22:58:45.557Z,2.13
2023-08-17T23:01:12.349Z,2.20
2023-08-17T23:03:39.385Z,2.22
2023-08-17T23:06:06.248Z,2.63
2023-08-17T23:08:33.576Z,2.30
2023-08-17T23:11:02.042Z,2.40
2023-08-17T23:13:29.082Z,2.05
2023-08-17T23:15:56.142Z,2.70
2023-08-17T23:18:23.302Z,2.50
2023-08-17T23:20:50.480Z,2.25
2023-08-17T23:23:18.947Z,1.95
2023-08-17T23:25:45.947Z,2.22
2023-08-17T23:28:13.220Z,2.80
2023-08-17T23:30:41.028Z,2.25
2023-08-17T23:33:10.161Z,2.58
2023-08-17T23:35:39.536Z,2.35
2023-08-17T23:38:07.395Z,2.80
2023-08-17T23:40:34.893Z,2.50
2023-08-17T23:43:01.853Z,2.80
2023-08-17T23:45:28.720Z,2.65
2023-08-17T23:47:56.364Z,2.75
2023-08-17T23:50:23.429Z,2.55
2023-08-17T23:52:50.624Z,2.30
2023-08-17T23:55:17.827Z,2.70
2023-08-17T23:57:44.625Z,2.80
